createdAt,value
2019-03-04T00:04:12.074Z,12.46
2019-03-04T00:09:23.849Z,12.45
2019-03-04T00:14:35.814Z,12.46
2019-03-04T00:19:47.946Z,12.47
2019-03-04T00:25:02.571Z,12.53
2019-03-04T00:30:13.710Z,12.53
2019-03-04T00:35:23.751Z,12.57
2019-03-04T00:40:37.346Z,12.52
2019-03-04T00:45:49.124Z,12.50
2019-03-04T00:51:00.012Z,12.46
2019-03-04T00:56:15.109Z,12.49
2019-03-04T01:01:30.770Z,12.52
2019-03-04T01:06:41.956Z,12.44
2019-03-04T01:11:51.421Z,12.45
2019-03-04T01:17:04.056Z,12.34
2019-03-04T01:22:17.091Z,12.35
2019-03-04T01:27:26.394Z,12.42
2019-03-04T01:32:34.570Z,12.32
2019-03-04T01:37:43.719Z,12.41
2019-03-04T01:43:13.218Z,12.36
2019-03-04T01:48:22.105Z,12.31
2019-03-04T01:53:37.510Z,12.41
2019-03-04T01:58:50.083Z,12.38
2019-03-04T02:04:03.554Z,12.25
2019-03-04T02:09:18.179Z,11.88
2019-03-04T02:14:31.848Z,11.72
2019-03-04T02:19:39.280Z,11.68
2019-03-04T02:24:57.123Z,11.82
2019-03-04T02:30:09.156Z,11.96
2019-03-04T02:35:42.856Z,12.05
2019-03-04T02:40:58.283Z,12.01
2019-03-04T02:46:10.044Z,12.16
2019-03-04T02:51:20.299Z,12.21
2019-03-04T02:56:33.895Z,12.28
2019-03-04T03:01:41.756Z,12.32
2019-03-04T03:06:53.538Z,12.27
2019-03-04T03:12:07.074Z,12.23
2019-03-04T03:17:16.196Z,12.24
2019-03-04T03:22:24.207Z,12.19
2019-03-04T03:27:32.747Z,12.17
2019-03-04T03:32:44.398Z,12.14
2019-03-04T03:37:56.142Z,12.20
2019-03-04T03:43:08.710Z,12.24
2019-03-04T03:48:24.138Z,12.25
2019-03-04T03:53:36.840Z,12.28
2019-03-04T03:58:47.582Z,12.22
2019-03-04T04:04:01.770Z,12.17
2019-03-04T04:09:10.797Z,12.20
2019-03-04T04:14:19.772Z,12.26
2019-03-04T04:19:28.991Z,12.19
2019-03-04T04:24:37.418Z,12.22
2019-03-04T04:29:52.901Z,12.22
2019-03-04T04:40:37.581Z,12.27
2019-03-04T04:45:47.670Z,12.26
2019-03-04T04:50:59.363Z,12.56
2019-03-04T04:56:10.150Z,12.59
2019-03-04T05:01:21.828Z,12.52
2019-03-04T05:06:34.468Z,12.52
2019-03-04T05:11:46.188Z,12.49
2019-03-04T05:16:57.096Z,12.48
2019-03-04T05:22:07.185Z,12.43
2019-03-04T05:27:15.855Z,12.33
2019-03-04T05:32:26.881Z,12.28
2019-03-04T05:37:37.743Z,12.19
2019-03-04T05:42:48.484Z,12.13
2019-03-04T05:47:57.194Z,12.12
2019-03-04T05:53:09.761Z,12.08
2019-03-04T05:58:19.199Z,12.02
2019-03-04T06:03:30.946Z,11.68
2019-03-04T06:08:40.910Z,10.26
2019-03-04T06:13:56.230Z,9.68
2019-03-04T06:19:06.088Z,9.46
2019-03-04T06:24:15.975Z,8.74
2019-03-04T06:29:29.518Z,7.16
2019-03-04T06:34:42.070Z,6.85
2019-03-04T06:39:49.265Z,6.83
2019-03-04T06:45:00.525Z,6.93
2019-03-04T06:50:10.698Z,7.05
2019-03-04T06:55:31.116Z,7.15
2019-03-04T07:00:50.889Z,7.28
2019-03-04T07:05:59.140Z,7.52
2019-03-04T07:11:10.916Z,7.71
2019-03-04T07:16:22.969Z,7.62
2019-03-04T07:21:31.650Z,7.76
2019-03-04T07:26:42.577Z,7.94
2019-03-04T07:31:54.374Z,7.99
2019-03-04T07:37:04.138Z,8.13
2019-03-04T07:42:13.219Z,8.17
2019-03-04T07:47:22.084Z,8.25
2019-03-04T07:52:33.767Z,8.30
2019-03-04T07:57:43.184Z,8.35
2019-03-04T08:02:56.775Z,8.37
2019-03-04T08:08:08.979Z,8.39
2019-03-04T08:13:42.791Z,8.32
2019-03-04T08:18:52.891Z,8.33
2019-03-04T08:24:08.233Z,8.21
2019-03-04T08:29:18.237Z,7.99
2019-03-04T08:34:31.549Z,7.79
2019-03-04T08:39:43.460Z,7.61
2019-03-04T08:44:54.291Z,7.45
2019-03-04T08:50:04.934Z,7.40
2019-03-04T08:55:19.492Z,7.39
2019-03-04T09:00:32.103Z,7.11
2019-03-04T09:05:41.934Z,6.73
2019-03-04T09:10:57.574Z,6.57
2019-03-04T09:16:14.771Z,6.42
2019-03-04T09:21:26.499Z,6.30
2019-03-04T09:26:38.404Z,6.27
2019-03-04T09:31:48.476Z,6.21
2019-03-04T09:37:00.964Z,6.07
2019-03-04T09:42:28.710Z,6.01
2019-03-04T09:47:40.836Z,6.11
2019-03-04T09:52:50.692Z,6.15
2019-03-04T09:58:00.733Z,5.93
2019-03-04T10:03:45.964Z,5.75
2019-03-04T10:09:07.551Z,5.76
2019-03-04T10:14:41.029Z,6.06
2019-03-04T10:20:14.838Z,6.39
2019-03-04T10:26:06.259Z,6.53
2019-03-04T10:31:42.049Z,6.49
2019-03-04T10:37:21.911Z,6.93
2019-03-04T10:43:20.684Z,7.34
2019-03-04T10:48:30.536Z,7.43
2019-03-04T10:53:40.954Z,7.23
2019-03-04T10:58:53.120Z,7.34
2019-03-04T11:04:05.768Z,7.50
2019-03-04T11:09:15.715Z,8.13
2019-03-04T11:14:24.908Z,8.08
2019-03-04T11:19:34.201Z,7.74
2019-03-04T11:24:44.037Z,8.01
2019-03-04T11:29:54.929Z,8.42
2019-03-04T11:35:07.473Z,8.39
2019-03-04T11:40:34.092Z,8.29
2019-03-04T11:45:46.687Z,8.57
2019-03-04T11:51:00.703Z,9.63
2019-03-04T11:56:10.439Z,8.85
2019-03-04T12:01:36.268Z,8.98
2019-03-04T12:06:46.409Z,8.47
2019-03-04T12:11:59.118Z,8.47
2019-03-04T12:17:10.136Z,8.92
2019-03-04T12:22:23.718Z,9.08
2019-03-04T12:27:45.894Z,8.86
2019-03-04T12:32:55.746Z,8.78
2019-03-04T12:38:08.419Z,8.74
2019-03-04T12:43:18.243Z,8.92
2019-03-04T12:48:28.939Z,8.94
2019-03-04T12:53:40.613Z,8.92
2019-03-04T12:58:50.976Z,9.30
2019-03-04T13:04:05.026Z,9.65
2019-03-04T13:09:15.186Z,10.04
2019-03-04T13:14:23.974Z,11.17
2019-03-04T13:19:38.409Z,10.53
2019-03-04T13:24:48.295Z,9.68
2019-03-04T13:29:59.941Z,10.89
2019-03-04T13:35:11.767Z,11.51
2019-03-04T13:40:21.763Z,11.51
2019-03-04T13:45:36.295Z,10.08
2019-03-04T13:50:46.188Z,10.44
2019-03-04T13:55:56.014Z,11.59
2019-03-04T14:01:06.143Z,11.44
2019-03-04T14:06:18.933Z,11.51
2019-03-04T14:11:31.204Z,12.67
2019-03-04T14:16:42.059Z,12.31
2019-03-04T14:21:57.282Z,13.11
2019-03-04T14:27:07.798Z,14.17
2019-03-04T14:32:17.610Z,12.65
2019-03-04T14:37:32.389Z,13.21
2019-03-04T14:42:45.270Z,13.81
2019-03-04T14:47:55.196Z,13.54
2019-03-04T14:53:06.055Z,13.23
2019-03-04T14:58:15.950Z,11.99
2019-03-04T15:03:33.636Z,12.82
2019-03-04T15:08:46.213Z,10.92
2019-03-04T15:13:57.901Z,10.46
2019-03-04T15:19:12.362Z,9.81
2019-03-04T15:24:20.619Z,9.86
2019-03-04T15:29:29.346Z,9.28
2019-03-04T15:34:38.373Z,9.11
2019-03-04T15:39:48.749Z,9.05
2019-03-04T15:45:00.258Z,9.09
2019-03-04T15:50:10.397Z,8.96
2019-03-04T15:55:19.517Z,8.93
2019-03-04T16:00:29.380Z,8.63
2019-03-04T16:05:44.701Z,8.51
2019-03-04T16:10:58.338Z,8.69
2019-03-04T16:16:08.234Z,8.55
2019-03-04T16:21:18.295Z,8.41
2019-03-04T16:26:28.288Z,8.44
2019-03-04T16:31:37.833Z,8.32
2019-03-04T16:36:46.820Z,8.16
2019-03-04T16:41:54.953Z,8.22
2019-03-04T16:47:05.766Z,8.12
2019-03-04T16:52:15.457Z,8.03
2019-03-04T16:57:28.011Z,7.95
2019-03-04T17:02:38.886Z,7.94
2019-03-04T17:07:51.082Z,7.89
2019-03-04T17:12:59.153Z,7.85
2019-03-04T17:18:17.572Z,7.82
2019-03-04T17:23:38.348Z,7.80
2019-03-04T17:28:51.828Z,7.82
2019-03-04T17:34:59.791Z,7.79
2019-03-04T17:40:12.777Z,7.78
2019-03-04T17:45:20.913Z,7.69
2019-03-04T17:50:34.301Z,7.63
2019-03-04T17:55:47.945Z,7.52
2019-03-04T18:00:59.075Z,7.49
2019-03-04T18:06:07.353Z,7.48
2019-03-04T18:11:21.025Z,7.44
2019-03-04T18:16:33.825Z,7.45
2019-03-04T18:21:43.686Z,7.44
2019-03-04T18:27:19.470Z,7.43
2019-03-04T18:33:02.515Z,7.40
2019-03-04T18:38:43.510Z,7.33
2019-03-04T18:44:29.259Z,7.32
2019-03-04T18:49:36.877Z,7.31
2019-03-04T18:54:46.826Z,7.29
2019-03-04T18:59:54.304Z,7.23
2019-03-04T19:05:08.464Z,7.18
2019-03-04T19:10:16.416Z,7.07
2019-03-04T19:15:24.662Z,6.97
2019-03-04T19:20:38.210Z,6.90
2019-03-04T19:25:47.491Z,6.85
2019-03-04T19:31:02.594Z,6.85
2019-03-04T19:36:14.444Z,6.93
2019-03-04T19:41:24.456Z,6.99
2019-03-04T19:46:38.061Z,7.15
2019-03-04T19:51:49.079Z,7.23
2019-03-04T19:56:57.622Z,7.35
2019-03-04T20:02:08.098Z,7.54
2019-03-04T20:07:15.434Z,7.58
2019-03-04T20:12:27.908Z,7.56
2019-03-04T20:17:36.060Z,7.56
2019-03-04T20:22:46.913Z,7.55
2019-03-04T20:27:55.431Z,7.53
2019-03-04T20:33:06.668Z,7.48
2019-03-04T20:38:15.811Z,7.42
2019-03-04T20:43:26.679Z,7.38
2019-03-04T20:48:39.302Z,7.28
2019-03-04T20:53:52.078Z,7.14
2019-03-04T20:59:02.820Z,6.92
2019-03-04T21:04:12.231Z,6.75
2019-03-04T21:09:23.395Z,6.68
2019-03-04T21:14:51.907Z,6.63
2019-03-04T21:20:05.540Z,6.68
2019-03-04T21:25:35.552Z,6.76
2019-03-04T21:31:26.271Z,6.78
2019-03-04T21:37:07.738Z,6.87
2019-03-04T21:42:26.842Z,6.95
2019-03-04T21:47:37.924Z,6.96
2019-03-04T21:52:53.857Z,7.03
2019-03-04T21:58:02.512Z,7.03
2019-03-04T22:03:23.234Z,6.86
2019-03-04T22:08:32.148Z,6.61
2019-03-04T22:13:44.017Z,6.55
2019-03-04T22:18:56.632Z,6.60
2019-03-04T22:24:07.509Z,6.64
2019-03-04T22:29:17.287Z,6.81
2019-03-04T22:34:26.673Z,6.92
2019-03-04T22:39:37.430Z,7.01
2019-03-04T22:44:46.641Z,6.99
2019-03-04T22:49:58.360Z,7.02
2019-03-04T22:55:09.832Z,7.01
2019-03-04T23:01:19.095Z,6.96
2019-03-04T23:06:34.115Z,6.97
2019-03-04T23:11:42.961Z,6.90
2019-03-04T23:16:54.787Z,6.89
2019-03-04T23:22:03.683Z,6.86
2019-03-04T23:27:14.535Z,6.86
2019-03-04T23:32:27.305Z,6.84
2019-03-04T23:37:42.594Z,6.85
2019-03-04T23:42:53.813Z,6.83
2019-03-04T23:48:06.692Z,6.71
2019-03-04T23:53:13.869Z,6.62
2019-03-04T23:58:29.972Z,6.63
